Latest Weather Observations for Stawell

IDV60801

Issued at 11:12 am EDT Thursday 23 January 2020 (issued every 10 minutes, with the page automatically refreshed every 10 minutes)

About weather observations | Map of weather stations | Latest weather observations for VIC | Other Formats
Station Details ID: 079105 Name: STAWELL AERODROME Lat: -37.07 Lon: 142.74 Height: 235.36 m
Data from the previous 72 hours. | See also: Recent months at Stawell
Date/Time
EDT
Temp
°C
App
Temp
°C
Dew
Point
°C
Rel
Hum
%
Delta-T
°C
Wind Press
QNH
hPa
Press
MSL
hPa
Rain since
9am
mm
Dir  Spd
km/h
Gust
km/h
Spd
kts
Gust
kts
23/11:00am 12.9 8.6 10.6 86 1.2 W 24 43 13 23 998.3 997.3 1.2
23/10:46am 14.1 8.3 11.4 84 1.5 NW 33 57 18 31 997.7 996.7 0.6
23/10:30am 14.9 11.0 12.0 83 1.6 NNW 24 37 13 20 996.8 995.9 0.0
23/10:00am 13.7 8.9 11.6 87 1.1 NNW 28 39 15 21 997.1 996.2 0.0
23/09:30am 12.7 9.6 11.6 93 0.6 N 19 24 10 13 997.2 996.3 0.0
23/09:00am 12.3 9.5 11.5 95 0.4 N 17 24 9 13 997.5 996.6 11.4
23/08:30am 12.0 9.6 11.4 96 0.3 NNW 15 20 8 11 997.4 996.5 11.4
23/08:00am 11.5 8.6 10.9 96 0.3 NNW 17 24 9 13 997.2 996.3 11.4
23/07:30am 11.5 8.3 11.2 98 0.2 NNW 19 26 10 14 996.9 996.0 11.4
23/07:00am 11.1 8.9 10.8 98 0.2 NNW 13 19 7 10 997.0 996.1 11.4
23/06:30am 11.4 9.7 11.1 98 0.2 NNW 11 15 6 8 996.8 995.9 10.6
23/06:00am 11.6 9.1 11.1 97 0.3 NNW 15 22 8 12 997.0 996.1 9.6
23/05:30am 11.8 9.7 11.3 97 0.3 N 13 20 7 11 997.1 996.2 9.4
23/05:00am 11.9 10.5 11.0 94 0.5 N 9 13 5 7 997.3 996.4 8.6
23/04:30am 11.7 10.2 10.6 93 0.6 NNE 9 13 5 7 997.3 996.4 8.2
23/04:00am 12.0 11.1 11.4 96 0.3 NNE 7 11 4 6 997.5 996.6 8.2
23/03:30am 11.8 10.9 11.2 96 0.3 N 7 9 4 5 997.8 996.8 8.2
23/03:00am 12.1 10.9 11.5 96 0.3 NE 9 13 5 7 997.8 996.8 8.2
23/02:30am 12.2 11.9 11.6 96 0.3 ENE 4 11 2 6 997.9 996.9 8.2
23/02:00am 12.3 11.4 11.5 95 0.4 ENE 7 9 4 5 998.4 997.4 8.2
23/01:30am 12.4 11.2 11.6 95 0.4 ENE 9 13 5 7 998.6 997.6 7.8
23/01:00am 12.1 11.0 10.7 91 0.7 NE 7 9 4 5 998.9 997.9 7.0
23/12:30am 12.2 12.0 10.4 89 0.9 W 2 9 1 5 999.6 998.6 5.2
23/12:00am 12.8 12.4 11.2 90 0.9 S 4 7 2 4 999.6 998.6 3.4
 
Date/Time
EDT
Temp
°C
App
Temp
°C
Dew
Point
°C
Rel
Hum
%
Delta-T
°C
Wind Press
QNH
hPa
Press
MSL
hPa
Rain since
9am
mm
Dir  Spd
km/h
Gust
km/h
Spd
kts
Gust
kts
22/11:30pm 13.0 12.3 11.4 90 0.9 ENE 6 9 3 5 1000.0 999.0 2.6
22/11:00pm 12.8 11.8 10.9 88 1.0 SW 7 11 4 6 1000.3 999.3 2.0
22/10:30pm 13.0 11.6 10.9 87 1.1 WSW 9 17 5 9 1000.2 999.2 1.6
22/10:00pm 13.8 12.1 11.3 85 1.4 SE 11 15 6 8 1000.1 999.1 1.4
22/09:30pm 15.7 15.8 12.8 83 1.6 E 4 11 2 6 1000.0 999.0 1.0
22/09:00pm 16.1 15.1 13.4 84 1.5 SSW 11 17 6 9 999.6 998.6 0.6
22/08:30pm 17.5 16.2 13.8 79 2.1 SSE 13 24 7 13 998.7 997.7 0.2
22/08:00pm 18.6 18.1 11.9 65 3.8 W 6 11 3 6 998.1 997.1 0.2
22/07:30pm 18.6 15.7 10.9 61 4.2 W 17 28 9 15 997.4 996.5 0.2
22/07:00pm 18.5 18.0 13.8 74 2.7 WSW 9 13 5 7 996.6 995.6 0.2
22/06:30pm 19.5 18.0 12.0 62 4.2 WSW 11 22 6 12 996.7 995.7 0.0
22/06:00pm 22.1 18.4 9.3 44 7.0 W 19 32 10 17 997.1 996.2 0.0
22/05:30pm 23.2 19.1 8.5 39 7.9 W 20 32 11 17 996.7 995.7 0.0
22/05:00pm 25.5 21.4 8.5 34 9.3 WSW 20 35 11 19 996.4 995.4 0.0
22/04:30pm 28.1 23.2 6.8 26 11.4 WNW 22 37 12 20 995.8 994.8 0.0
22/04:21pm 29.4 21.9 6.1 23 12.4 NW 35 59 19 32 995.7 994.7 0.0
22/04:18pm 29.8 20.9 5.1 21 13.0 NNW 41 63 22 34 995.7 994.7 0.0
22/04:00pm 30.7 21.1 4.4 19 13.8 N 44 63 24 34 995.8 994.8 0.0
22/03:30pm 30.2 22.8 4.8 20 13.3 NNW 33 56 18 30 996.6 995.6 0.0
22/03:00pm 29.4 21.5 4.1 20 13.1 N 35 56 19 30 997.1 996.2 0.0
22/02:40pm 29.3 22.3 4.0 20 13.0 N 30 54 16 29 997.4 996.5 0.0
22/02:30pm 29.0 22.3 3.8 20 12.9 N 28 44 15 24 997.4 996.5 0.0
22/02:00pm 28.3 20.6 5.2 23 12.1 N 35 56 19 30 998.1 997.1 0.0
22/01:36pm 27.8 20.4 4.2 22 12.1 N 32 54 17 29 999.2 998.2 0.0
22/01:30pm 27.8 20.4 4.2 22 12.1 N 32 46 17 25 999.4 998.4 0.0
22/01:00pm 27.5 20.6 4.5 23 11.9 N 30 44 16 24 999.9 998.9 0.0
22/12:32pm 27.5 20.2 4.5 23 11.8 N 32 54 17 29 1000.5 999.5 0.0
22/12:30pm 27.5 20.2 4.5 23 11.8 N 32 48 17 26 1000.4 999.4 0.0
22/12:00pm 27.7 20.4 4.7 23 11.9 N 32 57 17 31 1000.6 999.7 0.0
22/11:30am 27.1 20.5 6.0 26 11.1 N 30 50 16 27 1001.0 1000.1 0.0
22/11:00am 26.4 20.1 5.9 27 10.8 N 28 46 15 25 1001.7 1000.8 0.0
22/10:30am 25.9 20.2 6.5 29 10.2 N 26 43 14 23 1001.7 1000.8 0.0
22/10:10am 25.5 19.3 6.2 29 10.1 N 28 46 15 25 1002.1 1001.1 0.0
22/10:00am 25.4 18.9 6.6 30 9.9 N 30 46 16 25 1002.2 1001.2 0.0
22/09:30am 24.9 18.1 7.1 32 9.4 N 32 52 17 28 1002.3 1001.3 0.0
22/09:20am 24.4 17.9 6.6 32 9.3 N 30 48 16 26 1002.2 1001.2 0.0
22/09:00am 23.2 18.0 7.3 36 8.4 N 24 39 13 21 1002.6 1001.6 0.0
22/08:30am 22.1 17.7 7.5 39 7.7 N 20 32 11 17 1002.8 1001.8 0.0
22/08:00am 21.1 16.2 7.0 40 7.3 N 22 33 12 18 1002.5 1001.5 0.0
22/07:30am 20.6 17.5 7.2 42 6.9 N 13 22 7 12 1002.4 1001.4 0.0
22/07:00am 20.5 17.8 7.5 43 6.8 N 11 17 6 9 1002.6 1001.6 0.0
22/06:30am 20.5 16.7 7.5 43 6.8 NNE 17 28 9 15 1002.5 1001.5 0.0
22/06:00am 19.3 16.4 8.0 48 5.9 NNE 13 17 7 9 1002.9 1001.9 0.0
22/05:30am 18.9 16.4 8.0 49 5.7 NNE 11 17 6 9 1003.2 1002.2 0.0
22/05:00am 18.5 15.9 7.9 50 5.5 NE 11 15 6 8 1003.3 1002.3 0.0
22/04:30am 18.7 16.3 7.2 47 5.9 NNE 9 15 5 8 1003.7 1002.7 0.0
22/04:00am 19.1 16.4 7.2 46 6.1 N 11 15 6 8 1004.0 1003.0 0.0
22/03:30am 19.4 16.7 7.2 45 6.3 N 11 19 6 10 1004.3 1003.4 0.0
22/03:00am 19.6 16.4 6.7 43 6.6 N 13 19 7 10 1004.4 1003.5 0.0
22/02:30am 19.8 16.1 6.2 41 6.9 N 15 22 8 12 1004.7 1003.8 0.0
22/02:00am 20.0 15.4 5.6 39 7.2 N 19 30 10 16 1004.8 1003.9 0.0
22/01:30am 20.2 15.6 5.4 38 7.4 N 19 30 10 16 1005.1 1004.2 0.0
22/01:00am 20.2 16.1 4.3 35 7.8 NNE 15 22 8 12 1005.5 1004.6 0.0
22/12:30am 20.6 16.4 3.8 33 8.1 NNE 15 20 8 11 1005.6 1004.7 0.0
22/12:00am 20.1 16.2 3.3 33 8.1 NNE 13 17 7 9 1005.8 1004.9 0.0
 
Date/Time
EDT
Temp
°C
App
Temp
°C
Dew
Point
°C
Rel
Hum
%
Delta-T
°C
Wind Press
QNH
hPa
Press
MSL
hPa
Rain since
9am
mm
Dir  Spd
km/h
Gust
km/h
Spd
kts
Gust
kts
21/11:30pm 18.9 16.4 3.5 36 7.3 NNE 6 9 3 5 1005.8 1004.9 0.0
21/11:00pm 19.2 16.6 3.4 35 7.5 NE 6 9 3 5 1005.9 1005.0 0.0
21/10:30pm 20.2 17.5 3.9 34 7.9 NNE 7 9 4 5 1006.0 1005.1 0.0
21/10:00pm 20.7 17.5 3.0 31 8.5 NNE 9 11 5 6 1006.2 1005.3 0.0
21/09:30pm 22.2 19.3 2.8 28 9.3 N 7 9 4 5 1006.2 1005.3 0.0
21/09:00pm 23.6 20.4 3.0 26 10.1 N 9 13 5 7 1006.4 1005.5 0.0
21/08:30pm 24.4 20.9 3.7 26 10.3 N 11 19 6 10 1006.2 1005.3 0.0
21/08:00pm 24.8 20.2 3.5 25 10.6 NNW 17 22 9 12 1006.3 1005.4 0.0
21/07:30pm 25.1 22.0 3.7 25 10.7 NW 9 17 5 9 1006.2 1005.3 0.0
21/07:00pm 25.2 20.9 3.2 24 10.9 WNW 15 20 8 11 1006.3 1005.4 0.0
21/06:30pm 25.5 21.1 2.9 23 11.1 WNW 15 24 8 13 1006.3 1005.4 0.0
21/06:00pm 25.1 20.7 2.5 23 11.1 WNW 15 26 8 14 1006.6 1005.6 0.0
21/05:30pm 25.7 20.8 1.8 21 11.6 WNW 17 28 9 15 1006.7 1005.7 0.0
21/05:00pm 25.0 20.1 -0.2 19 11.7 NW 15 22 8 12 1007.0 1006.0 0.0
21/04:30pm 24.6 19.4 0.2 20 11.4 NW 17 33 9 18 1007.3 1006.3 0.0
21/04:00pm 24.2 19.0 -0.2 20 11.3 NW 17 32 9 17 1007.7 1006.7 0.0
21/03:30pm 25.3 20.2 0.8 20 11.6 WNW 17 28 9 15 1008.0 1007.1 0.0
21/03:00pm 23.8 19.3 2.0 24 10.5 NW 15 30 8 16 1008.3 1007.4 0.0
21/02:30pm 23.6 19.7 3.5 27 9.9 WNW 13 20 7 11 1008.7 1007.8 0.0
21/02:00pm 22.6 18.3 3.2 28 9.4 WNW 15 22 8 12 1009.2 1008.3 0.0
21/01:30pm 21.9 16.9 3.6 30 8.9 NW 19 28 10 15 1009.4 1008.5 0.0
21/01:00pm 21.6 18.0 2.8 29 9.0 NNW 11 19 6 10 1009.9 1009.0 0.0
21/12:30pm 20.5 17.2 2.3 30 8.6 W 9 17 5 9 1010.2 1009.3 0.0
21/12:00pm 19.8 16.7 3.5 34 7.8 ESE 9 13 5 7 1010.6 1009.7 0.0
21/11:30am 18.9 15.6 2.7 34 7.6 S 9 13 5 7 1010.8 1009.9 0.0
21/11:00am 18.1 15.8 5.0 42 6.4 N 6 11 3 6 1011.3 1010.3 0.0
21/10:30am 16.7 13.5 5.3 47 5.5 WSW 11 20 6 11 1011.6 1010.6 0.0
21/10:00am 16.3 13.7 6.2 51 5.0 SSE 9 19 5 10 1011.7 1010.7 0.0
21/09:30am 15.3 12.0 6.6 56 4.3 SSW 13 20 7 11 1011.8 1010.9 0.0
21/09:00am 14.1 10.8 6.5 60 3.7 SSW 13 19 7 10 1011.8 1010.9 0.0
21/08:30am 13.4 9.7 6.5 63 3.3 S 15 20 8 11 1011.5 1010.5 0.0
21/08:00am 12.9 9.3 6.9 67 2.9 S 15 20 8 11 1011.2 1010.2 0.0
21/07:30am 12.5 9.3 7.0 69 2.7 S 13 17 7 9 1010.8 1009.9 0.0
21/07:00am 11.9 9.1 6.8 71 2.5 SSW 11 17 6 9 1010.5 1009.6 0.0
21/06:30am 12.0 7.6 6.7 70 2.6 S 19 26 10 14 1010.0 1009.1 0.0
21/06:00am 12.1 8.6 7.0 71 2.5 SSE 15 22 8 12 1009.6 1008.7 0.0
21/05:30am 12.0 8.5 7.1 72 2.4 S 15 20 8 11 1009.3 1008.4 0.0
21/05:00am 12.3 8.5 7.4 72 2.4 S 17 24 9 13 1009.2 1008.3 0.0
21/04:30am 12.4 8.2 7.5 72 2.4 S 19 28 10 15 1009.0 1008.1 0.0
21/04:00am 12.2 8.3 7.3 72 2.4 S 17 30 9 16 1008.9 1008.0 0.0
21/03:30am 12.4 8.6 7.5 72 2.4 S 17 30 9 16 1009.1 1008.2 0.0
21/03:00am 12.7 8.3 7.6 71 2.5 S 20 32 11 17 1009.2 1008.3 0.0
21/02:30am 13.0 8.9 7.9 71 2.5 S 19 28 10 15 1009.3 1008.4 0.0
21/02:00am 13.0 8.8 8.1 72 2.5 SSE 20 32 11 17 1009.6 1008.7 0.0
21/01:30am 13.0 8.5 8.5 74 2.3 S 22 35 12 19 1009.7 1008.8 0.0
21/01:00am 13.3 7.3 8.8 74 2.3 S 30 44 16 24 1009.6 1008.7 0.0
21/12:30am 13.4 9.0 8.9 74 2.3 S 22 37 12 20 1010.0 1009.1 0.0
21/12:00am 13.3 9.2 8.6 73 2.4 SSW 20 30 11 16 1009.9 1009.0 0.0
 
Date/Time
EDT
Temp
°C
App
Temp
°C
Dew
Point
°C
Rel
Hum
%
Delta-T
°C
Wind Press
QNH
hPa
Press
MSL
hPa
Rain since
9am
mm
Dir  Spd
km/h
Gust
km/h
Spd
kts
Gust
kts
20/11:30pm 13.5 10.4 8.8 73 2.4 S 15 28 8 15 1009.9 1009.0 0.0
20/11:00pm 13.6 9.7 8.7 72 2.5 S 19 37 10 20 1010.0 1009.1 0.0
20/10:32pm 13.9 8.3 8.9 72 2.6 SSW 28 50 15 27 1009.6 1008.7 0.0
20/10:30pm 14.0 8.9 9.2 73 2.5 SSW 26 43 14 23 1009.6 1008.7 0.0
20/10:00pm 14.4 9.8 9.6 73 2.5 SSW 24 43 13 23 1009.4 1008.5 0.0
20/09:30pm 14.7 10.1 9.7 72 2.6 SSW 24 39 13 21 1009.1 1008.2 0.0
20/09:00pm 15.2 11.5 10.0 71 2.8 SSW 20 32 11 17 1008.7 1007.8 0.0
20/08:30pm 15.7 11.2 10.2 70 2.9 S 24 37 13 20 1008.5 1007.6 0.0
20/08:00pm 15.7 12.8 10.9 73 2.6 SSW 17 30 9 16 1008.3 1007.4 0.0
20/07:30pm 16.0 12.4 11.8 76 2.3 S 22 39 12 21 1008.1 1007.2 0.0
20/07:00pm 16.4 11.6 11.6 73 2.6 S 28 46 15 25 1007.5 1006.5 0.0
20/06:46pm 16.3 11.6 11.9 75 2.4 SSW 28 46 15 25 1007.4 1006.4 0.0
20/06:30pm 16.7 11.6 12.0 74 2.6 SSW 30 44 16 24 1007.1 1006.1 0.0
20/06:06pm 17.6 13.0 12.3 71 3.0 SSW 28 46 15 25 1006.8 1005.8 0.0
20/06:00pm 18.1 13.6 12.5 70 3.2 SSW 28 44 15 24 1006.7 1005.7 0.0
20/05:54pm 18.0 13.2 12.9 72 2.9 SSW 30 48 16 26 1006.7 1005.7 0.0
20/05:30pm 18.2 13.7 12.6 70 3.2 SSW 28 41 15 22 1006.3 1005.4 0.0
20/05:00pm 20.3 15.8 12.5 61 4.5 SSW 28 46 15 25 1005.8 1004.9 0.0
20/04:36pm 21.2 15.8 12.3 57 5.1 SSW 32 50 17 27 1005.5 1004.6 0.0
20/04:30pm 21.3 15.8 12.4 57 5.1 SSW 33 48 18 26 1005.4 1004.5 0.0
20/04:03pm 21.6 16.1 11.9 54 5.5 SSW 32 50 17 27 1005.1 1004.2 0.0
20/04:00pm 22.3 16.9 12.3 53 5.7 SSW 32 46 17 25 1005.2 1004.3 0.0
20/03:30pm 22.3 17.7 13.4 57 5.2 SSW 30 52 16 28 1004.9 1004.0 0.0
20/03:19pm 23.3 19.2 13.8 55 5.6 S 28 46 15 25 1004.9 1004.0 0.0
20/03:00pm 22.6 18.1 13.9 58 5.1 S 30 46 16 25 1004.9 1004.0 0.0
20/02:58pm 22.4 18.1 13.2 56 5.3 SSW 28 46 15 25 1004.9 1004.0 0.0
20/02:30pm 22.6 18.5 13.9 58 5.1 SSW 28 39 15 21 1004.9 1004.0 0.0
20/02:19pm 22.4 18.3 13.7 58 5.1 SSW 28 46 15 25 1005.1 1004.2 0.0
20/02:00pm 22.6 19.1 14.4 60 4.9 SSW 26 39 14 21 1005.1 1004.2 0.0
20/01:30pm 21.2 17.6 14.1 64 4.2 SSW 26 37 14 20 1005.4 1004.5 0.0
20/01:00pm 20.9 17.4 14.5 67 3.8 SSW 26 39 14 21 1005.7 1004.8 0.0
20/12:30pm 21.4 18.0 13.8 62 4.4 SSE 24 35 13 19 1005.7 1004.8 0.0
20/12:00pm 21.2 18.1 14.6 66 3.9 S 24 32 13 17 1005.8 1004.9 0.0
20/11:30am 19.7 17.4 14.7 73 2.9 S 20 35 11 19 1006.0 1005.1 0.0

Other formats

Comma delimited format used in spreadsheet applications
http://www.bom.gov.au/fwo/IDV60801/IDV60801.94836.axf

JavaScript Object Notation format (JSON) in row-major order
http://www.bom.gov.au/fwo/IDV60801/IDV60801.94836.json

Data quality

Most of these data are generated automatically and are frequently updated. Quality checks on data are not normally performed. It is possible for incorrect values to appear. Refer to information at About Latest Weather Observations and please check the disclaimer before using these data.